sensor_id;sensor_type;location;lat;lon;timestamp;temperature;humidity
23568;DHT22;11962;50.838;4.430;2022-10-31T00:01:23;16.10;99.90
23568;DHT22;11962;50.838;4.430;2022-10-31T00:03:49;16.10;99.90
23568;DHT22;11962;50.838;4.430;2022-10-31T00:06:15;16.10;99.90
23568;DHT22;11962;50.838;4.430;2022-10-31T00:08:47;16.00;99.90
23568;DHT22;11962;50.838;4.430;2022-10-31T00:11:13;16.00;99.90
23568;DHT22;11962;50.838;4.430;2022-10-31T00:13:38;15.80;99.90
23568;DHT22;11962;50.838;4.430;2022-10-31T00:16:25;15.80;99.90
23568;DHT22;11962;50.838;4.430;2022-10-31T00:18:58;15.80;99.90
23568;DHT22;11962;50.838;4.430;2022-10-31T00:21:24;15.70;99.90
23568;DHT22;11962;50.838;4.430;2022-10-31T00:23:50;15.70;99.90
23568;DHT22;11962;50.838;4.430;2022-10-31T00:26:16;15.70;99.90
23568;DHT22;11962;50.838;4.430;2022-10-31T00:28:42;15.70;99.90
23568;DHT22;11962;50.838;4.430;2022-10-31T00:31:09;15.60;99.90
23568;DHT22;11962;50.838;4.430;2022-10-31T00:33:37;15.60;99.90
23568;DHT22;11962;50.838;4.430;2022-10-31T00:36:04;15.60;99.90
23568;DHT22;11962;50.838;4.430;2022-10-31T00:38:30;15.60;99.90
23568;DHT22;11962;50.838;4.430;2022-10-31T00:40:55;15.60;99.90
23568;DHT22;11962;50.838;4.430;2022-10-31T00:43:21;15.50;99.90
23568;DHT22;11962;50.838;4.430;2022-10-31T00:46:19;15.50;99.90
23568;DHT22;11962;50.838;4.430;2022-10-31T00:48:45;15.40;99.90
23568;DHT22;11962;50.838;4.430;2022-10-31T00:51:10;15.40;99.90
23568;DHT22;11962;50.838;4.430;2022-10-31T00:53:36;15.30;99.90
23568;DHT22;11962;50.838;4.430;2022-10-31T00:56:02;15.30;99.90
23568;DHT22;11962;50.838;4.430;2022-10-31T00:58:28;15.20;99.90
23568;DHT22;11962;50.838;4.430;2022-10-31T01:01:03;15.20;99.90
23568;DHT22;11962;50.838;4.430;2022-10-31T01:03:33;15.10;99.90
23568;DHT22;11962;50.838;4.430;2022-10-31T01:06:05;15.20;99.90
23568;DHT22;11962;50.838;4.430;2022-10-31T01:08:31;15.10;99.90
23568;DHT22;11962;50.838;4.430;2022-10-31T01:11:07;15.10;99.90
23568;DHT22;11962;50.838;4.430;2022-10-31T01:13:34;15.00;99.90
23568;DHT22;11962;50.838;4.430;2022-10-31T01:16:14;15.00;99.90
23568;DHT22;11962;50.838;4.430;2022-10-31T01:18:41;14.90;99.90
23568;DHT22;11962;50.838;4.430;2022-10-31T01:21:10;14.90;99.90
23568;DHT22;11962;50.838;4.430;2022-10-31T01:23:36;14.80;99.90
23568;DHT22;11962;50.838;4.430;2022-10-31T01:28:50;14.80;99.90
23568;DHT22;11962;50.838;4.430;2022-10-31T01:31:34;14.80;99.90
23568;DHT22;11962;50.838;4.430;2022-10-31T01:34:00;14.80;99.90
23568;DHT22;11962;50.838;4.430;2022-10-31T01:36:32;14.80;99.90
23568;DHT22;11962;50.838;4.430;2022-10-31T01:39:04;14.80;99.90
23568;DHT22;11962;50.838;4.430;2022-10-31T01:41:33;14.70;99.90
23568;DHT22;11962;50.838;4.430;2022-10-31T01:44:01;14.70;99.90
23568;DHT22;11962;50.838;4.430;2022-10-31T01:46:36;14.70;99.90
23568;DHT22;11962;50.838;4.430;2022-10-31T01:49:05;14.60;99.90
23568;DHT22;11962;50.838;4.430;2022-10-31T01:51:38;14.60;99.90
23568;DHT22;11962;50.838;4.430;2022-10-31T01:54:09;14.60;99.90
23568;DHT22;11962;50.838;4.430;2022-10-31T01:56:39;14.60;99.90
23568;DHT22;11962;50.838;4.430;2022-10-31T01:59:07;14.60;99.90
23568;DHT22;11962;50.838;4.430;2022-10-31T02:01:43;14.60;99.90
23568;DHT22;11962;50.838;4.430;2022-10-31T02:04:09;14.50;99.90
23568;DHT22;11962;50.838;4.430;2022-10-31T02:06:47;14.50;99.90
23568;DHT22;11962;50.838;4.430;2022-10-31T02:09:15;14.40;99.90
23568;DHT22;11962;50.838;4.430;2022-10-31T02:11:42;14.30;99.90
23568;DHT22;11962;50.838;4.430;2022-10-31T02:14:08;14.30;99.90
23568;DHT22;11962;50.838;4.430;2022-10-31T02:16:56;14.30;99.90
23568;DHT22;11962;50.838;4.430;2022-10-31T02:19:34;14.20;99.90
23568;DHT22;11962;50.838;4.430;2022-10-31T02:25:26;14.20;99.90
23568;DHT22;11962;50.838;4.430;2022-10-31T02:33:46;14.10;99.90
23568;DHT22;11962;50.838;4.430;2022-10-31T02:36:36;14.10;99.90
23568;DHT22;11962;50.838;4.430;2022-10-31T02:39:26;14.00;99.90
23568;DHT22;11962;50.838;4.430;2022-10-31T02:42:09;14.00;99.90
23568;DHT22;11962;50.838;4.430;2022-10-31T02:47:28;13.90;99.90
23568;DHT22;11962;50.838;4.430;2022-10-31T02:49:56;13.90;99.90
23568;DHT22;11962;50.838;4.430;2022-10-31T02:52:28;13.90;99.90
23568;DHT22;11962;50.838;4.430;2022-10-31T02:54:53;13.90;99.90
23568;DHT22;11962;50.838;4.430;2022-10-31T02:57:25;13.90;99.90
23568;DHT22;11962;50.838;4.430;2022-10-31T02:59:55;13.90;99.90
23568;DHT22;11962;50.838;4.430;2022-10-31T03:13:18;13.70;99.90
23568;DHT22;11962;50.838;4.430;2022-10-31T03:15:51;13.70;99.90
23568;DHT22;11962;50.838;4.430;2022-10-31T03:18:29;13.70;99.90
23568;DHT22;11962;50.838;4.430;2022-10-31T03:21:14;13.60;99.90
23568;DHT22;11962;50.838;4.430;2022-10-31T03:23:43;13.60;99.90
23568;DHT22;11962;50.838;4.430;2022-10-31T03:26:12;13.60;99.90
23568;DHT22;11962;50.838;4.430;2022-10-31T03:29:03;13.60;99.90
23568;DHT22;11962;50.838;4.430;2022-10-31T03:31:35;13.60;99.90
23568;DHT22;11962;50.838;4.430;2022-10-31T03:34:02;13.50;99.90
23568;DHT22;11962;50.838;4.430;2022-10-31T03:36:34;13.40;99.90
23568;DHT22;11962;50.838;4.430;2022-10-31T03:39:02;13.40;99.90
23568;DHT22;11962;50.838;4.430;2022-10-31T03:41:32;13.40;99.90
23568;DHT22;11962;50.838;4.430;2022-10-31T03:44:06;13.40;99.90
23568;DHT22;11962;50.838;4.430;2022-10-31T03:46:33;13.40;99.90
23568;DHT22;11962;50.838;4.430;2022-10-31T03:49:00;13.40;99.90
23568;DHT22;11962;50.838;4.430;2022-10-31T03:54:09;13.40;99.90
23568;DHT22;11962;50.838;4.430;2022-10-31T03:59:37;13.40;99.90
23568;DHT22;11962;50.838;4.430;2022-10-31T04:02:18;13.30;99.90
23568;DHT22;11962;50.838;4.430;2022-10-31T04:04:47;13.30;99.90
23568;DHT22;11962;50.838;4.430;2022-10-31T04:07:15;13.30;99.90
23568;DHT22;11962;50.838;4.430;2022-10-31T04:09:43;13.30;99.90
23568;DHT22;11962;50.838;4.430;2022-10-31T04:12:12;13.20;99.90
23568;DHT22;11962;50.838;4.430;2022-10-31T04:14:42;13.20;99.90
23568;DHT22;11962;50.838;4.430;2022-10-31T04:17:12;13.20;99.90
23568;DHT22;11962;50.838;4.430;2022-10-31T04:19:39;13.20;99.90
23568;DHT22;11962;50.838;4.430;2022-10-31T04:22:05;13.20;99.90
23568;DHT22;11962;50.838;4.430;2022-10-31T04:24:31;13.20;99.90
23568;DHT22;11962;50.838;4.430;2022-10-31T04:26:57;13.10;99.90
23568;DHT22;11962;50.838;4.430;2022-10-31T04:29:22;13.10;99.90
23568;DHT22;11962;50.838;4.430;2022-10-31T04:31:48;13.10;99.90
23568;DHT22;11962;50.838;4.430;2022-10-31T04:34:14;13.10;99.90
23568;DHT22;11962;50.838;4.430;2022-10-31T04:36:39;13.10;99.90
23568;DHT22;11962;50.838;4.430;2022-10-31T04:39:05;13.10;99.90
23568;DHT22;11962;50.838;4.430;2022-10-31T04:41:31;13.10;99.90
23568;DHT22;11962;50.838;4.430;2022-10-31T04:43:56;13.10;99.90
23568;DHT22;11962;50.838;4.430;2022-10-31T04:46:22;13.10;99.90
23568;DHT22;11962;50.838;4.430;2022-10-31T04:48:48;13.10;99.90
23568;DHT22;11962;50.838;4.430;2022-10-31T04:51:13;13.10;99.90
23568;DHT22;11962;50.838;4.430;2022-10-31T04:53:39;13.10;99.90
23568;DHT22;11962;50.838;4.430;2022-10-31T04:56:05;13.10;99.90
23568;DHT22;11962;50.838;4.430;2022-10-31T04:58:30;13.10;99.90
23568;DHT22;11962;50.838;4.430;2022-10-31T05:00:56;13.10;99.90
23568;DHT22;11962;50.838;4.430;2022-10-31T05:03:22;13.10;99.90
23568;DHT22;11962;50.838;4.430;2022-10-31T05:05:48;13.10;99.90
23568;DHT22;11962;50.838;4.430;2022-10-31T05:08:14;13.10;99.90
23568;DHT22;11962;50.838;4.430;2022-10-31T05:10:40;13.10;99.90
23568;DHT22;11962;50.838;4.430;2022-10-31T05:13:06;13.10;99.90
23568;DHT22;11962;50.838;4.430;2022-10-31T05:15:32;13.10;99.90
23568;DHT22;11962;50.838;4.430;2022-10-31T05:17:58;13.10;99.90
23568;DHT22;11962;50.838;4.430;2022-10-31T05:20:26;13.20;99.90
23568;DHT22;11962;50.838;4.430;2022-10-31T05:22:53;13.10;99.90
23568;DHT22;11962;50.838;4.430;2022-10-31T05:25:21;13.20;99.90
23568;DHT22;11962;50.838;4.430;2022-10-31T05:27:48;13.20;99.90
23568;DHT22;11962;50.838;4.430;2022-10-31T05:30:17;13.20;99.90
23568;DHT22;11962;50.838;4.430;2022-10-31T05:32:45;13.20;99.90
23568;DHT22;11962;50.838;4.430;2022-10-31T05:35:35;13.20;99.90
23568;DHT22;11962;50.838;4.430;2022-10-31T05:38:00;13.30;99.90
23568;DHT22;11962;50.838;4.430;2022-10-31T05:40:27;13.30;99.90
23568;DHT22;11962;50.838;4.430;2022-10-31T05:42:54;13.30;99.90
23568;DHT22;11962;50.838;4.430;2022-10-31T05:45:20;13.30;99.90
23568;DHT22;11962;50.838;4.430;2022-10-31T05:47:57;13.30;99.90
23568;DHT22;11962;50.838;4.430;2022-10-31T05:50:24;13.30;99.90
23568;DHT22;11962;50.838;4.430;2022-10-31T05:53:00;13.30;99.90
23568;DHT22;11962;50.838;4.430;2022-10-31T05:55:27;13.30;99.90
23568;DHT22;11962;50.838;4.430;2022-10-31T05:57:53;13.30;99.90
23568;DHT22;11962;50.838;4.430;2022-10-31T06:00:20;13.40;99.90
23568;DHT22;11962;50.838;4.430;2022-10-31T06:02:45;13.40;99.90
23568;DHT22;11962;50.838;4.430;2022-10-31T06:05:12;13.40;99.90
23568;DHT22;11962;50.838;4.430;2022-10-31T06:07:37;13.50;99.90
23568;DHT22;11962;50.838;4.430;2022-10-31T06:10:05;13.50;99.90
23568;DHT22;11962;50.838;4.430;2022-10-31T06:12:32;13.50;99.90
23568;DHT22;11962;50.838;4.430;2022-10-31T06:14:57;13.60;99.90
23568;DHT22;11962;50.838;4.430;2022-10-31T06:17:23;13.60;99.90
23568;DHT22;11962;50.838;4.430;2022-10-31T06:19:54;13.60;99.90
23568;DHT22;11962;50.838;4.430;2022-10-31T06:22:19;13.70;99.90
23568;DHT22;11962;50.838;4.430;2022-10-31T06:24:45;13.70;99.90
23568;DHT22;11962;50.838;4.430;2022-10-31T06:27:11;13.70;99.90
23568;DHT22;11962;50.838;4.430;2022-10-31T06:29:36;13.80;99.90
23568;DHT22;11962;50.838;4.430;2022-10-31T06:32:02;13.80;99.90
23568;DHT22;11962;50.838;4.430;2022-10-31T06:34:53;13.80;99.90
23568;DHT22;11962;50.838;4.430;2022-10-31T06:37:18;13.80;99.90
23568;DHT22;11962;50.838;4.430;2022-10-31T06:39:44;13.80;99.90
23568;DHT22;11962;50.838;4.430;2022-10-31T06:42:10;13.70;99.90
23568;DHT22;11962;50.838;4.430;2022-10-31T06:44:35;13.70;99.90
23568;DHT22;11962;50.838;4.430;2022-10-31T06:47:01;13.70;99.90
23568;DHT22;11962;50.838;4.430;2022-10-31T06:49:26;13.70;99.90
23568;DHT22;11962;50.838;4.430;2022-10-31T06:51:52;13.80;99.90
23568;DHT22;11962;50.838;4.430;2022-10-31T06:54:18;13.90;99.90
23568;DHT22;11962;50.838;4.430;2022-10-31T06:56:46;13.90;99.90
23568;DHT22;11962;50.838;4.430;2022-10-31T06:59:12;13.90;99.90
23568;DHT22;11962;50.838;4.430;2022-10-31T07:01:38;14.00;99.90
23568;DHT22;11962;50.838;4.430;2022-10-31T07:04:04;14.00;99.90
23568;DHT22;11962;50.838;4.430;2022-10-31T07:06:29;14.10;99.90
23568;DHT22;11962;50.838;4.430;2022-10-31T07:08:55;14.20;99.90
23568;DHT22;11962;50.838;4.430;2022-10-31T07:11:21;14.30;99.90
23568;DHT22;11962;50.838;4.430;2022-10-31T07:13:46;14.30;99.90
23568;DHT22;11962;50.838;4.430;2022-10-31T07:16:12;14.40;99.90
23568;DHT22;11962;50.838;4.430;2022-10-31T07:18:39;14.40;99.90
23568;DHT22;11962;50.838;4.430;2022-10-31T07:21:17;14.50;99.90
23568;DHT22;11962;50.838;4.430;2022-10-31T07:23:42;14.60;99.90
23568;DHT22;11962;50.838;4.430;2022-10-31T07:26:09;14.60;99.90
23568;DHT22;11962;50.838;4.430;2022-10-31T07:28:35;14.70;99.90
23568;DHT22;11962;50.838;4.430;2022-10-31T07:31:01;14.70;99.90
23568;DHT22;11962;50.838;4.430;2022-10-31T07:33:26;14.80;99.90
23568;DHT22;11962;50.838;4.430;2022-10-31T07:35:52;14.90;99.90
23568;DHT22;11962;50.838;4.430;2022-10-31T07:38:18;14.90;99.90
23568;DHT22;11962;50.838;4.430;2022-10-31T07:40:48;14.90;99.90
23568;DHT22;11962;50.838;4.430;2022-10-31T07:43:14;15.10;99.90
23568;DHT22;11962;50.838;4.430;2022-10-31T07:45:40;15.10;99.90
23568;DHT22;11962;50.838;4.430;2022-10-31T07:48:05;15.20;99.90
23568;DHT22;11962;50.838;4.430;2022-10-31T07:50:32;15.20;99.90
23568;DHT22;11962;50.838;4.430;2022-10-31T07:53:05;15.20;99.90
23568;DHT22;11962;50.838;4.430;2022-10-31T07:55:32;15.30;99.90
23568;DHT22;11962;50.838;4.430;2022-10-31T07:57:59;15.40;99.90
23568;DHT22;11962;50.838;4.430;2022-10-31T08:00:25;15.40;99.90
23568;DHT22;11962;50.838;4.430;2022-10-31T08:05:24;15.60;99.90
23568;DHT22;11962;50.838;4.430;2022-10-31T08:07:50;15.70;99.90
23568;DHT22;11962;50.838;4.430;2022-10-31T08:10:53;15.90;99.90
23568;DHT22;11962;50.838;4.430;2022-10-31T08:13:21;16.00;99.90
23568;DHT22;11962;50.838;4.430;2022-10-31T08:15:46;16.10;99.90
23568;DHT22;11962;50.838;4.430;2022-10-31T08:18:15;16.20;99.90
23568;DHT22;11962;50.838;4.430;2022-10-31T08:20:42;16.30;99.90
23568;DHT22;11962;50.838;4.430;2022-10-31T08:23:10;16.30;99.90
23568;DHT22;11962;50.838;4.430;2022-10-31T08:25:36;16.30;99.90
23568;DHT22;11962;50.838;4.430;2022-10-31T08:28:02;16.40;99.90
23568;DHT22;11962;50.838;4.430;2022-10-31T08:30:30;16.50;99.90
23568;DHT22;11962;50.838;4.430;2022-10-31T08:32:58;16.60;99.90
23568;DHT22;11962;50.838;4.430;2022-10-31T08:35:24;16.70;99.90
23568;DHT22;11962;50.838;4.430;2022-10-31T08:37:56;16.70;99.90
23568;DHT22;11962;50.838;4.430;2022-10-31T08:40:23;16.60;99.90
23568;DHT22;11962;50.838;4.430;2022-10-31T08:43:12;16.60;99.90
23568;DHT22;11962;50.838;4.430;2022-10-31T08:45:38;16.60;99.90
23568;DHT22;11962;50.838;4.430;2022-10-31T08:48:09;16.60;99.90
23568;DHT22;11962;50.838;4.430;2022-10-31T08:50:35;16.60;99.90
23568;DHT22;11962;50.838;4.430;2022-10-31T08:53:06;16.60;99.90
23568;DHT22;11962;50.838;4.430;2022-10-31T08:55:34;16.70;99.90
23568;DHT22;11962;50.838;4.430;2022-10-31T08:58:00;16.70;99.90
23568;DHT22;11962;50.838;4.430;2022-10-31T09:00:26;16.80;99.90
23568;DHT22;11962;50.838;4.430;2022-10-31T09:03:00;16.90;99.90
23568;DHT22;11962;50.838;4.430;2022-10-31T09:05:26;17.00;99.90
23568;DHT22;11962;50.838;4.430;2022-10-31T09:07:55;17.10;99.90
23568;DHT22;11962;50.838;4.430;2022-10-31T09:10:22;17.30;99.90
23568;DHT22;11962;50.838;4.430;2022-10-31T09:12:55;17.50;99.90
23568;DHT22;11962;50.838;4.430;2022-10-31T09:15:23;17.60;99.90
23568;DHT22;11962;50.838;4.430;2022-10-31T09:17:52;17.70;99.90
23568;DHT22;11962;50.838;4.430;2022-10-31T09:20:19;17.70;99.90
23568;DHT22;11962;50.838;4.430;2022-10-31T09:22:45;17.70;99.90
23568;DHT22;11962;50.838;4.430;2022-10-31T09:25:29;17.80;99.90
23568;DHT22;11962;50.838;4.430;2022-10-31T09:27:56;17.80;99.90
23568;DHT22;11962;50.838;4.430;2022-10-31T09:30:22;17.80;99.90
23568;DHT22;11962;50.838;4.430;2022-10-31T09:32:54;17.90;99.90
23568;DHT22;11962;50.838;4.430;2022-10-31T09:35:19;17.90;99.90
23568;DHT22;11962;50.838;4.430;2022-10-31T09:37:45;17.90;99.90
23568;DHT22;11962;50.838;4.430;2022-10-31T09:40:10;17.90;99.90
23568;DHT22;11962;50.838;4.430;2022-10-31T09:45:53;17.90;99.90
23568;DHT22;11962;50.838;4.430;2022-10-31T09:50:56;17.80;99.90
23568;DHT22;11962;50.838;4.430;2022-10-31T09:53:35;17.90;99.90
23568;DHT22;11962;50.838;4.430;2022-10-31T09:56:02;17.90;99.90
23568;DHT22;11962;50.838;4.430;2022-10-31T09:58:32;18.00;99.90
23568;DHT22;11962;50.838;4.430;2022-10-31T10:01:01;18.10;99.90
23568;DHT22;11962;50.838;4.430;2022-10-31T10:03:45;18.10;99.90
23568;DHT22;11962;50.838;4.430;2022-10-31T10:06:18;18.20;99.90
23568;DHT22;11962;50.838;4.430;2022-10-31T10:08:45;18.30;99.90
23568;DHT22;11962;50.838;4.430;2022-10-31T10:14:06;18.50;99.90
23568;DHT22;11962;50.838;4.430;2022-10-31T10:19:27;18.90;99.90
23568;DHT22;11962;50.838;4.430;2022-10-31T10:30:19;19.60;99.90
23568;DHT22;11962;50.838;4.430;2022-10-31T10:33:12;19.80;99.90
23568;DHT22;11962;50.838;4.430;2022-10-31T10:35:59;20.00;99.90
23568;DHT22;11962;50.838;4.430;2022-10-31T10:38:29;20.10;99.90
23568;DHT22;11962;50.838;4.430;2022-10-31T10:40:55;20.00;99.90
23568;DHT22;11962;50.838;4.430;2022-10-31T10:43:33;19.90;99.90
23568;DHT22;11962;50.838;4.430;2022-10-31T10:48:48;19.90;99.90
23568;DHT22;11962;50.838;4.430;2022-10-31T10:51:22;20.00;99.90
23568;DHT22;11962;50.838;4.430;2022-10-31T10:53:58;20.10;99.90
23568;DHT22;11962;50.838;4.430;2022-10-31T10:56:42;20.10;99.90
23568;DHT22;11962;50.838;4.430;2022-10-31T10:59:13;20.20;99.90
23568;DHT22;11962;50.838;4.430;2022-10-31T11:01:40;20.30;99.90
23568;DHT22;11962;50.838;4.430;2022-10-31T11:04:27;20.30;99.90
23568;DHT22;11962;50.838;4.430;2022-10-31T11:07:04;20.30;99.90
23568;DHT22;11962;50.838;4.430;2022-10-31T11:09:32;20.30;99.90
23568;DHT22;11962;50.838;4.430;2022-10-31T11:11:58;20.20;99.90
23568;DHT22;11962;50.838;4.430;2022-10-31T11:14:25;20.20;99.90
23568;DHT22;11962;50.838;4.430;2022-10-31T11:17:06;20.20;99.90
23568;DHT22;11962;50.838;4.430;2022-10-31T11:19:33;20.40;99.90
23568;DHT22;11962;50.838;4.430;2022-10-31T11:22:13;20.60;99.90
23568;DHT22;11962;50.838;4.430;2022-10-31T11:24:41;20.90;99.90
23568;DHT22;11962;50.838;4.430;2022-10-31T11:27:16;21.20;99.90
23568;DHT22;11962;50.838;4.430;2022-10-31T11:29:44;21.60;99.90
23568;DHT22;11962;50.838;4.430;2022-10-31T11:32:21;21.60;99.90
23568;DHT22;11962;50.838;4.430;2022-10-31T11:34:51;21.70;99.90
23568;DHT22;11962;50.838;4.430;2022-10-31T11:37:26;21.70;99.90
23568;DHT22;11962;50.838;4.430;2022-10-31T11:39:54;21.70;99.90
23568;DHT22;11962;50.838;4.430;2022-10-31T11:42:27;21.70;99.90
23568;DHT22;11962;50.838;4.430;2022-10-31T11:45:15;21.70;99.90
23568;DHT22;11962;50.838;4.430;2022-10-31T11:47:47;21.80;99.90
23568;DHT22;11962;50.838;4.430;2022-10-31T11:50:23;21.80;99.90
23568;DHT22;11962;50.838;4.430;2022-10-31T11:52:50;21.90;99.90
23568;DHT22;11962;50.838;4.430;2022-10-31T11:55:33;21.90;99.90
23568;DHT22;11962;50.838;4.430;2022-10-31T11:57:59;22.00;99.90
23568;DHT22;11962;50.838;4.430;2022-10-31T12:00:29;22.10;99.90
23568;DHT22;11962;50.838;4.430;2022-10-31T12:03:25;22.20;99.90
23568;DHT22;11962;50.838;4.430;2022-10-31T12:06:16;22.20;99.90
23568;DHT22;11962;50.838;4.430;2022-10-31T12:08:59;22.30;99.90
23568;DHT22;11962;50.838;4.430;2022-10-31T12:17:23;22.00;99.90
23568;DHT22;11962;50.838;4.430;2022-10-31T12:26:08;21.90;99.90
23568;DHT22;11962;50.838;4.430;2022-10-31T12:43:40;21.20;99.90
23568;DHT22;11962;50.838;4.430;2022-10-31T12:46:24;21.20;99.90
23568;DHT22;11962;50.838;4.430;2022-10-31T12:49:15;21.10;99.90
23568;DHT22;11962;50.838;4.430;2022-10-31T12:51:56;21.10;99.90
23568;DHT22;11962;50.838;4.430;2022-10-31T12:57:31;20.90;99.90
23568;DHT22;11962;50.838;4.430;2022-10-31T13:00:11;21.00;99.90
23568;DHT22;11962;50.838;4.430;2022-10-31T13:02:51;21.00;99.90
23568;DHT22;11962;50.838;4.430;2022-10-31T13:10:28;21.40;99.90
23568;DHT22;11962;50.838;4.430;2022-10-31T13:13:07;21.50;99.90
23568;DHT22;11962;50.838;4.430;2022-10-31T13:15:50;21.50;99.90
23568;DHT22;11962;50.838;4.430;2022-10-31T13:18:33;21.50;99.90
23568;DHT22;11962;50.838;4.430;2022-10-31T13:21:01;21.70;99.90
23568;DHT22;11962;50.838;4.430;2022-10-31T13:23:33;21.80;99.90
23568;DHT22;11962;50.838;4.430;2022-10-31T13:26:03;21.80;99.90
23568;DHT22;11962;50.838;4.430;2022-10-31T13:31:10;21.60;99.90
23568;DHT22;11962;50.838;4.430;2022-10-31T13:42:55;21.10;99.90
23568;DHT22;11962;50.838;4.430;2022-10-31T13:45:24;21.00;99.90
23568;DHT22;11962;50.838;4.430;2022-10-31T13:48:29;21.00;99.90
23568;DHT22;11962;50.838;4.430;2022-10-31T13:51:00;21.00;99.90
23568;DHT22;11962;50.838;4.430;2022-10-31T13:56:14;20.80;99.90
23568;DHT22;11962;50.838;4.430;2022-10-31T13:58:54;20.90;99.90
23568;DHT22;11962;50.838;4.430;2022-10-31T14:01:22;20.90;99.90
23568;DHT22;11962;50.838;4.430;2022-10-31T14:04:00;20.90;99.90
23568;DHT22;11962;50.838;4.430;2022-10-31T14:06:50;20.90;99.90
23568;DHT22;11962;50.838;4.430;2022-10-31T14:09:38;20.90;99.90
23568;DHT22;11962;50.838;4.430;2022-10-31T14:12:22;20.80;99.90
23568;DHT22;11962;50.838;4.430;2022-10-31T14:14:51;20.70;99.90
23568;DHT22;11962;50.838;4.430;2022-10-31T14:17:21;20.70;99.90
23568;DHT22;11962;50.838;4.430;2022-10-31T14:20:00;20.60;99.90
23568;DHT22;11962;50.838;4.430;2022-10-31T14:22:33;20.60;99.90
23568;DHT22;11962;50.838;4.430;2022-10-31T14:24:58;20.60;99.90
23568;DHT22;11962;50.838;4.430;2022-10-31T14:29:50;20.50;99.90
23568;DHT22;11962;50.838;4.430;2022-10-31T14:32:23;20.50;99.90
23568;DHT22;11962;50.838;4.430;2022-10-31T14:34:59;20.60;99.90
23568;DHT22;11962;50.838;4.430;2022-10-31T14:41:08;20.60;99.90
23568;DHT22;11962;50.838;4.430;2022-10-31T14:46:49;20.60;99.90
23568;DHT22;11962;50.838;4.430;2022-10-31T14:52:21;20.40;99.90
23568;DHT22;11962;50.838;4.430;2022-10-31T14:54:53;20.30;99.90
23568;DHT22;11962;50.838;4.430;2022-10-31T14:57:27;20.20;99.90
23568;DHT22;11962;50.838;4.430;2022-10-31T15:00:00;20.10;99.90
23568;DHT22;11962;50.838;4.430;2022-10-31T15:02:29;20.10;99.90
23568;DHT22;11962;50.838;4.430;2022-10-31T15:04:58;20.00;99.90
23568;DHT22;11962;50.838;4.430;2022-10-31T15:07:25;19.90;99.90
23568;DHT22;11962;50.838;4.430;2022-10-31T15:10:01;20.00;99.90
23568;DHT22;11962;50.838;4.430;2022-10-31T15:12:32;20.00;99.90
23568;DHT22;11962;50.838;4.430;2022-10-31T15:15:14;20.00;99.90
23568;DHT22;11962;50.838;4.430;2022-10-31T15:17:44;19.90;99.90
23568;DHT22;11962;50.838;4.430;2022-10-31T15:20:22;19.80;99.90
23568;DHT22;11962;50.838;4.430;2022-10-31T15:22:49;19.80;99.90
23568;DHT22;11962;50.838;4.430;2022-10-31T15:25:23;19.70;99.90
23568;DHT22;11962;50.838;4.430;2022-10-31T15:27:50;19.60;99.90
23568;DHT22;11962;50.838;4.430;2022-10-31T15:30:21;19.40;99.90
23568;DHT22;11962;50.838;4.430;2022-10-31T15:32:48;19.40;99.90
23568;DHT22;11962;50.838;4.430;2022-10-31T15:35:26;19.30;99.90
23568;DHT22;11962;50.838;4.430;2022-10-31T15:37:53;19.40;99.90
23568;DHT22;11962;50.838;4.430;2022-10-31T15:40:22;19.30;99.90
23568;DHT22;11962;50.838;4.430;2022-10-31T15:42:57;19.30;99.90
23568;DHT22;11962;50.838;4.430;2022-10-31T15:45:25;19.20;99.90
23568;DHT22;11962;50.838;4.430;2022-10-31T15:48:00;19.20;99.90
23568;DHT22;11962;50.838;4.430;2022-10-31T15:50:40;19.10;99.90
23568;DHT22;11962;50.838;4.430;2022-10-31T15:53:18;19.00;99.90
23568;DHT22;11962;50.838;4.430;2022-10-31T15:55:50;19.00;99.90
23568;DHT22;11962;50.838;4.430;2022-10-31T15:58:17;18.90;99.90
23568;DHT22;11962;50.838;4.430;2022-10-31T16:00:43;18.90;99.90
23568;DHT22;11962;50.838;4.430;2022-10-31T16:05:45;18.70;99.90
23568;DHT22;11962;50.838;4.430;2022-10-31T16:14:05;18.70;99.90
23568;DHT22;11962;50.838;4.430;2022-10-31T16:16:34;18.60;99.90
23568;DHT22;11962;50.838;4.430;2022-10-31T16:19:11;18.60;99.90
23568;DHT22;11962;50.838;4.430;2022-10-31T16:21:38;18.50;99.90
23568;DHT22;11962;50.838;4.430;2022-10-31T16:24:18;18.50;99.90
23568;DHT22;11962;50.838;4.430;2022-10-31T16:26:49;18.40;99.90
23568;DHT22;11962;50.838;4.430;2022-10-31T16:29:26;18.30;99.90
23568;DHT22;11962;50.838;4.430;2022-10-31T16:31:52;18.20;99.90
23568;DHT22;11962;50.838;4.430;2022-10-31T16:34:20;18.20;99.90
23568;DHT22;11962;50.838;4.430;2022-10-31T16:36:47;18.10;99.90
23568;DHT22;11962;50.838;4.430;2022-10-31T16:39:13;18.00;99.90
23568;DHT22;11962;50.838;4.430;2022-10-31T16:41:41;18.00;99.90
23568;DHT22;11962;50.838;4.430;2022-10-31T16:44:20;17.90;99.90
23568;DHT22;11962;50.838;4.430;2022-10-31T16:46:46;17.80;99.90
23568;DHT22;11962;50.838;4.430;2022-10-31T16:49:12;17.70;99.90
23568;DHT22;11962;50.838;4.430;2022-10-31T16:51:40;17.70;99.90
23568;DHT22;11962;50.838;4.430;2022-10-31T16:54:06;17.70;99.90
23568;DHT22;11962;50.838;4.430;2022-10-31T16:56:36;17.60;99.90
23568;DHT22;11962;50.838;4.430;2022-10-31T16:59:05;17.60;99.90
23568;DHT22;11962;50.838;4.430;2022-10-31T17:01:32;17.50;99.90
23568;DHT22;11962;50.838;4.430;2022-10-31T17:03:59;17.40;99.90
23568;DHT22;11962;50.838;4.430;2022-10-31T17:06:25;17.40;99.90
23568;DHT22;11962;50.838;4.430;2022-10-31T17:08:53;17.30;99.90
23568;DHT22;11962;50.838;4.430;2022-10-31T17:11:21;17.20;99.90
23568;DHT22;11962;50.838;4.430;2022-10-31T17:13:47;17.20;99.90
23568;DHT22;11962;50.838;4.430;2022-10-31T17:16:13;17.10;99.90
23568;DHT22;11962;50.838;4.430;2022-10-31T17:18:42;17.10;99.90
23568;DHT22;11962;50.838;4.430;2022-10-31T17:21:17;17.00;99.90
23568;DHT22;11962;50.838;4.430;2022-10-31T17:23:44;17.00;99.90
23568;DHT22;11962;50.838;4.430;2022-10-31T17:26:09;16.90;99.90
23568;DHT22;11962;50.838;4.430;2022-10-31T17:28:35;16.90;99.90
23568;DHT22;11962;50.838;4.430;2022-10-31T17:31:01;16.90;99.90
23568;DHT22;11962;50.838;4.430;2022-10-31T17:33:27;16.90;99.90
23568;DHT22;11962;50.838;4.430;2022-10-31T17:35:53;16.90;99.90
23568;DHT22;11962;50.838;4.430;2022-10-31T17:38:18;16.90;99.90
23568;DHT22;11962;50.838;4.430;2022-10-31T17:40:44;16.90;99.90
23568;DHT22;11962;50.838;4.430;2022-10-31T17:43:10;16.90;99.90
23568;DHT22;11962;50.838;4.430;2022-10-31T17:45:40;16.80;99.90
23568;DHT22;11962;50.838;4.430;2022-10-31T17:48:07;16.90;99.90
23568;DHT22;11962;50.838;4.430;2022-10-31T17:50:33;16.90;99.90
23568;DHT22;11962;50.838;4.430;2022-10-31T17:52:59;16.80;99.90
23568;DHT22;11962;50.838;4.430;2022-10-31T17:55:26;16.90;99.90
23568;DHT22;11962;50.838;4.430;2022-10-31T17:57:51;16.90;99.90